Terminal Aerodrome Forecast
Issued by NWS Sterling, VA

Home | Current Version | Previous Version | Text Only | Print | Product List | Glossary On
Versions: 1 2 3 4 5 6 7 8 9 10 11 12 13 14 15 16 17 18 19 20 21 22 23 24 25 26 27
402
FTUS41 KLWX 212336
TAFDCA
TAF
KDCA 212336Z 2200/2306 20014KT P6SM FEW060 SCT150
     FM220200 25007KT P6SM BKN040
     FM220500 34006KT P6SM OVC045
     FM220600 36007KT P6SM -DZ OVC025
     FM221200 03008KT P6SM -RADZ OVC020
     FM221800 04007KT 3SM -RADZ BR OVC003
     FM230000 06007KT 4SM -RADZ BR OVC008=

USA.gov is the U.S. government's official web portal to all federal, state and local government web resources and services.